sensor_id;sensor_type;location;lat;lon;timestamp;pressure;altitude;pressure_sealevel;temperature;humidity
39793;BME280;26080;42.264;24.536;2023-02-28T00:00:32;99790.00;;;6.78;100.00
39793;BME280;26080;42.264;24.536;2023-02-28T00:02:58;99793.56;;;6.76;100.00
39793;BME280;26080;42.264;24.536;2023-02-28T00:05:25;99788.44;;;6.71;100.00
39793;BME280;26080;42.264;24.536;2023-02-28T00:07:51;99796.25;;;6.71;100.00
39793;BME280;26080;42.264;24.536;2023-02-28T00:10:20;99804.94;;;6.70;100.00
39793;BME280;26080;42.264;24.536;2023-02-28T00:12:53;99803.34;;;6.65;100.00
39793;BME280;26080;42.264;24.536;2023-02-28T00:15:19;99811.13;;;6.66;100.00
39793;BME280;26080;42.264;24.536;2023-02-28T00:17:44;99815.50;;;6.64;100.00
39793;BME280;26080;42.264;24.536;2023-02-28T00:20:11;99806.00;;;6.63;100.00
39793;BME280;26080;42.264;24.536;2023-02-28T00:22:39;99803.06;;;6.77;100.00
39793;BME280;26080;42.264;24.536;2023-02-28T00:25:06;99792.44;;;7.20;100.00
39793;BME280;26080;42.264;24.536;2023-02-28T00:27:35;99800.88;;;7.30;100.00
39793;BME280;26080;42.264;24.536;2023-02-28T00:30:05;99766.91;;;7.00;100.00
39793;BME280;26080;42.264;24.536;2023-02-28T00:32:31;99808.06;;;7.20;100.00
39793;BME280;26080;42.264;24.536;2023-02-28T00:34:57;99804.75;;;7.15;100.00
39793;BME280;26080;42.264;24.536;2023-02-28T00:37:22;99797.78;;;7.16;100.00
39793;BME280;26080;42.264;24.536;2023-02-28T00:39:48;99804.53;;;7.23;100.00
39793;BME280;26080;42.264;24.536;2023-02-28T00:42:14;99801.78;;;7.29;100.00
39793;BME280;26080;42.264;24.536;2023-02-28T00:44:39;99812.75;;;7.41;100.00
39793;BME280;26080;42.264;24.536;2023-02-28T00:47:04;99811.03;;;7.40;100.00
39793;BME280;26080;42.264;24.536;2023-02-28T00:49:30;99776.44;;;7.34;100.00
39793;BME280;26080;42.264;24.536;2023-02-28T00:51:56;99808.06;;;7.53;100.00
39793;BME280;26080;42.264;24.536;2023-02-28T00:54:22;99805.91;;;7.36;100.00
39793;BME280;26080;42.264;24.536;2023-02-28T00:56:48;99809.59;;;7.29;100.00
39793;BME280;26080;42.264;24.536;2023-02-28T00:59:15;99811.03;;;7.39;100.00
39793;BME280;26080;42.264;24.536;2023-02-28T01:01:41;99809.47;;;7.33;100.00
39793;BME280;26080;42.264;24.536;2023-02-28T01:04:07;99806.06;;;7.31;100.00
39793;BME280;26080;42.264;24.536;2023-02-28T01:06:33;99805.72;;;7.43;100.00
39793;BME280;26080;42.264;24.536;2023-02-28T01:08:59;99801.69;;;7.32;100.00
39793;BME280;26080;42.264;24.536;2023-02-28T01:11:25;99796.34;;;7.36;100.00
39793;BME280;26080;42.264;24.536;2023-02-28T01:13:51;99802.41;;;7.37;100.00
39793;BME280;26080;42.264;24.536;2023-02-28T01:16:17;99801.88;;;7.24;100.00
39793;BME280;26080;42.264;24.536;2023-02-28T01:18:43;99813.81;;;7.33;100.00
39793;BME280;26080;42.264;24.536;2023-02-28T01:21:14;99826.66;;;7.40;100.00
39793;BME280;26080;42.264;24.536;2023-02-28T01:23:41;99826.72;;;7.37;100.00
39793;BME280;26080;42.264;24.536;2023-02-28T01:26:09;99795.84;;;7.22;100.00
39793;BME280;26080;42.264;24.536;2023-02-28T01:28:35;99806.06;;;7.31;100.00
39793;BME280;26080;42.264;24.536;2023-02-28T01:31:00;99824.06;;;7.39;100.00
39793;BME280;26080;42.264;24.536;2023-02-28T01:33:26;99823.31;;;7.35;100.00
39793;BME280;26080;42.264;24.536;2023-02-28T01:36:05;99797.06;;;7.09;100.00
39793;BME280;26080;42.264;24.536;2023-02-28T01:38:32;99799.94;;;6.98;100.00
39793;BME280;26080;42.264;24.536;2023-02-28T01:40:58;99829.47;;;6.97;100.00
39793;BME280;26080;42.264;24.536;2023-02-28T01:43:29;99839.19;;;6.91;100.00
39793;BME280;26080;42.264;24.536;2023-02-28T01:45:56;99812.94;;;6.63;100.00
39793;BME280;26080;42.264;24.536;2023-02-28T01:48:26;99839.16;;;6.53;100.00
39793;BME280;26080;42.264;24.536;2023-02-28T01:50:54;99828.75;;;6.13;100.00
39793;BME280;26080;42.264;24.536;2023-02-28T01:53:28;99860.22;;;6.01;100.00
39793;BME280;26080;42.264;24.536;2023-02-28T01:55:55;99858.78;;;5.85;100.00
39793;BME280;26080;42.264;24.536;2023-02-28T01:58:20;99857.19;;;5.78;100.00
39793;BME280;26080;42.264;24.536;2023-02-28T02:00:46;99855.63;;;5.69;100.00
39793;BME280;26080;42.264;24.536;2023-02-28T02:03:16;99864.41;;;5.63;100.00
39793;BME280;26080;42.264;24.536;2023-02-28T02:05:47;99832.72;;;5.43;100.00
39793;BME280;26080;42.264;24.536;2023-02-28T02:08:21;99866.25;;;5.55;100.00
39793;BME280;26080;42.264;24.536;2023-02-28T02:10:59;99862.09;;;5.45;100.00
39793;BME280;26080;42.264;24.536;2023-02-28T02:13:42;99874.19;;;5.48;100.00
39793;BME280;26080;42.264;24.536;2023-02-28T02:22:21;99884.69;;;5.42;100.00
39793;BME280;26080;42.264;24.536;2023-02-28T02:27:57;99892.41;;;5.46;100.00
39793;BME280;26080;42.264;24.536;2023-02-28T02:31:39;99852.72;;;5.38;100.00
39793;BME280;26080;42.264;24.536;2023-02-28T02:41:18;99918.56;;;6.33;100.00
39793;BME280;26080;42.264;24.536;2023-02-28T02:43:46;99912.78;;;6.60;100.00
39793;BME280;26080;42.264;24.536;2023-02-28T02:46:21;99875.59;;;6.53;100.00
39793;BME280;26080;42.264;24.536;2023-02-28T02:48:50;99901.03;;;6.81;100.00
39793;BME280;26080;42.264;24.536;2023-02-28T02:51:20;99928.19;;;7.08;100.00
39793;BME280;26080;42.264;24.536;2023-02-28T02:53:52;99905.72;;;7.04;100.00
39793;BME280;26080;42.264;24.536;2023-02-28T02:56:23;99926.75;;;7.32;100.00
39793;BME280;26080;42.264;24.536;2023-02-28T02:58:51;99926.56;;;7.39;100.00
39793;BME280;26080;42.264;24.536;2023-02-28T03:01:20;99932.44;;;7.48;100.00
39793;BME280;26080;42.264;24.536;2023-02-28T03:03:55;99935.22;;;7.41;100.00
39793;BME280;26080;42.264;24.536;2023-02-28T03:06:21;99940.06;;;7.57;100.00
39793;BME280;26080;42.264;24.536;2023-02-28T03:08:47;99943.25;;;7.68;100.00
39793;BME280;26080;42.264;24.536;2023-02-28T03:11:13;99944.47;;;7.87;100.00
39793;BME280;26080;42.264;24.536;2023-02-28T03:14:14;99954.41;;;8.06;100.00
39793;BME280;26080;42.264;24.536;2023-02-28T03:25:01;99965.31;;;8.54;100.00
39793;BME280;26080;42.264;24.536;2023-02-28T03:27:38;99964.31;;;8.58;100.00
39793;BME280;26080;42.264;24.536;2023-02-28T03:30:48;99968.94;;;8.79;100.00
39793;BME280;26080;42.264;24.536;2023-02-28T03:33:21;99962.91;;;8.77;100.00
39793;BME280;26080;42.264;24.536;2023-02-28T03:36:13;99957.69;;;8.77;100.00
39793;BME280;26080;42.264;24.536;2023-02-28T03:38:42;99961.91;;;8.81;100.00
39793;BME280;26080;42.264;24.536;2023-02-28T03:41:36;99955.91;;;8.78;100.00
39793;BME280;26080;42.264;24.536;2023-02-28T03:44:25;99966.28;;;8.81;100.00
39793;BME280;26080;42.264;24.536;2023-02-28T03:47:04;99964.81;;;8.71;100.00
39793;BME280;26080;42.264;24.536;2023-02-28T03:49:35;99955.41;;;8.65;100.00
39793;BME280;26080;42.264;24.536;2023-02-28T03:52:03;99957.19;;;8.65;100.00
39793;BME280;26080;42.264;24.536;2023-02-28T03:54:38;99969.44;;;8.61;100.00
39793;BME280;26080;42.264;24.536;2023-02-28T03:57:15;99981.41;;;8.70;100.00
39793;BME280;26080;42.264;24.536;2023-02-28T03:59:47;99995.59;;;8.59;100.00
39793;BME280;26080;42.264;24.536;2023-02-28T04:02:16;100005.25;;;8.57;100.00
39793;BME280;26080;42.264;24.536;2023-02-28T04:04:41;99995.03;;;8.48;100.00
39793;BME280;26080;42.264;24.536;2023-02-28T04:07:13;99988.34;;;8.40;100.00
39793;BME280;26080;42.264;24.536;2023-02-28T04:09:40;99998.03;;;8.35;100.00
39793;BME280;26080;42.264;24.536;2023-02-28T04:12:05;100000.63;;;8.36;100.00
39793;BME280;26080;42.264;24.536;2023-02-28T04:14:31;100001.44;;;8.38;100.00
39793;BME280;26080;42.264;24.536;2023-02-28T04:16:56;100003.25;;;8.35;100.00
39793;BME280;26080;42.264;24.536;2023-02-28T04:19:22;100009.25;;;8.38;100.00
39793;BME280;26080;42.264;24.536;2023-02-28T04:21:50;100017.91;;;8.40;100.00
39793;BME280;26080;42.264;24.536;2023-02-28T04:24:18;100017.16;;;8.33;100.00
39793;BME280;26080;42.264;24.536;2023-02-28T04:26:50;100010.13;;;8.39;100.00
39793;BME280;26080;42.264;24.536;2023-02-28T04:29:24;100021.41;;;8.39;100.00
39793;BME280;26080;42.264;24.536;2023-02-28T04:31:51;100023.13;;;8.40;100.00
39793;BME280;26080;42.264;24.536;2023-02-28T04:34:18;100030.94;;;8.40;100.00
39793;BME280;26080;42.264;24.536;2023-02-28T04:36:44;100009.66;;;8.23;100.00
39793;BME280;26080;42.264;24.536;2023-02-28T04:39:11;100028.63;;;8.28;100.00
39793;BME280;26080;42.264;24.536;2023-02-28T04:41:36;100024.31;;;8.27;100.00
39793;BME280;26080;42.264;24.536;2023-02-28T04:44:02;100023.31;;;8.31;100.00
39793;BME280;26080;42.264;24.536;2023-02-28T04:46:28;100027.66;;;8.32;100.00
39793;BME280;26080;42.264;24.536;2023-02-28T04:48:53;100014.78;;;8.26;100.00
39793;BME280;26080;42.264;24.536;2023-02-28T04:51:19;100018.19;;;8.28;100.00
39793;BME280;26080;42.264;24.536;2023-02-28T04:53:45;100026.03;;;8.28;100.00
39793;BME280;26080;42.264;24.536;2023-02-28T04:56:13;100025.22;;;8.26;100.00
39793;BME280;26080;42.264;24.536;2023-02-28T04:58:39;100032.38;;;8.18;100.00
39793;BME280;26080;42.264;24.536;2023-02-28T05:01:07;100031.69;;;8.11;100.00
39793;BME280;26080;42.264;24.536;2023-02-28T05:03:41;100042.25;;;8.05;100.00
39793;BME280;26080;42.264;24.536;2023-02-28T05:06:07;100048.41;;;8.02;100.00
39793;BME280;26080;42.264;24.536;2023-02-28T05:08:33;100038.69;;;8.09;100.00
39793;BME280;26080;42.264;24.536;2023-02-28T05:10:59;100041.19;;;8.14;100.00
39793;BME280;26080;42.264;24.536;2023-02-28T05:13:28;100054.19;;;8.15;100.00
39793;BME280;26080;42.264;24.536;2023-02-28T05:15:54;100053.09;;;8.24;100.00
39793;BME280;26080;42.264;24.536;2023-02-28T05:18:20;100060.19;;;8.19;100.00
39793;BME280;26080;42.264;24.536;2023-02-28T05:20:45;100055.13;;;8.13;100.00
39793;BME280;26080;42.264;24.536;2023-02-28T05:23:12;100051.69;;;8.11;100.00
39793;BME280;26080;42.264;24.536;2023-02-28T05:25:38;100066.75;;;8.35;100.00
39793;BME280;26080;42.264;24.536;2023-02-28T05:28:04;100078.72;;;8.44;100.00
39793;BME280;26080;42.264;24.536;2023-02-28T05:30:30;100035.75;;;8.23;100.00
39793;BME280;26080;42.264;24.536;2023-02-28T05:32:57;100084.69;;;8.47;100.00
39793;BME280;26080;42.264;24.536;2023-02-28T05:35:22;100081.97;;;8.52;100.00
39793;BME280;26080;42.264;24.536;2023-02-28T05:37:48;100093.19;;;8.55;100.00
39793;BME280;26080;42.264;24.536;2023-02-28T05:40:14;100092.38;;;8.53;100.00
39793;BME280;26080;42.264;24.536;2023-02-28T05:42:40;100069.28;;;8.38;100.00
39793;BME280;26080;42.264;24.536;2023-02-28T05:45:07;100103.59;;;8.57;100.00
39793;BME280;26080;42.264;24.536;2023-02-28T05:47:33;100081.19;;;8.48;100.00
39793;BME280;26080;42.264;24.536;2023-02-28T05:49:58;100092.13;;;8.63;100.00
39793;BME280;26080;42.264;24.536;2023-02-28T05:52:25;100101.72;;;8.62;100.00
39793;BME280;26080;42.264;24.536;2023-02-28T05:54:50;100106.88;;;8.65;100.00
39793;BME280;26080;42.264;24.536;2023-02-28T05:57:16;100110.03;;;8.76;100.00
39793;BME280;26080;42.264;24.536;2023-02-28T05:59:41;100116.28;;;8.71;100.00
39793;BME280;26080;42.264;24.536;2023-02-28T06:02:17;100124.16;;;8.69;100.00
39793;BME280;26080;42.264;24.536;2023-02-28T06:04:43;100125.22;;;8.62;100.00
39793;BME280;26080;42.264;24.536;2023-02-28T06:07:09;100098.47;;;8.54;100.00
39793;BME280;26080;42.264;24.536;2023-02-28T06:09:35;100116.47;;;8.65;100.00
39793;BME280;26080;42.264;24.536;2023-02-28T06:12:02;100131.19;;;8.67;100.00
39793;BME280;26080;42.264;24.536;2023-02-28T06:14:31;100126.66;;;8.74;100.00
39793;BME280;26080;42.264;24.536;2023-02-28T06:16:57;100138.75;;;8.78;100.00
39793;BME280;26080;42.264;24.536;2023-02-28T06:19:23;100135.22;;;8.79;100.00
39793;BME280;26080;42.264;24.536;2023-02-28T06:21:51;100130.41;;;8.64;100.00
39793;BME280;26080;42.264;24.536;2023-02-28T06:24:19;100121.69;;;8.65;100.00
39793;BME280;26080;42.264;24.536;2023-02-28T06:26:44;100124.97;;;8.71;100.00
39793;BME280;26080;42.264;24.536;2023-02-28T06:29:10;100136.31;;;8.70;100.00
39793;BME280;26080;42.264;24.536;2023-02-28T06:31:36;100137.09;;;8.74;100.00
39793;BME280;26080;42.264;24.536;2023-02-28T06:34:03;100149.41;;;8.69;100.00
39793;BME280;26080;42.264;24.536;2023-02-28T06:36:29;100142.56;;;8.65;100.00
39793;BME280;26080;42.264;24.536;2023-02-28T06:38:54;100133.16;;;8.57;100.00
39793;BME280;26080;42.264;24.536;2023-02-28T06:41:25;100130.38;;;8.65;100.00
39793;BME280;26080;42.264;24.536;2023-02-28T06:43:54;100144.13;;;8.72;100.00
39793;BME280;26080;42.264;24.536;2023-02-28T06:46:20;100143.97;;;8.78;100.00
39793;BME280;26080;42.264;24.536;2023-02-28T06:48:45;100146.59;;;8.78;100.00
39793;BME280;26080;42.264;24.536;2023-02-28T06:51:20;100137.09;;;8.74;100.00
39793;BME280;26080;42.264;24.536;2023-02-28T06:53:47;100145.72;;;8.76;100.00
39793;BME280;26080;42.264;24.536;2023-02-28T06:56:14;100136.28;;;8.72;100.00
39793;BME280;26080;42.264;24.536;2023-02-28T06:58:41;100152.25;;;8.59;100.00
39793;BME280;26080;42.264;24.536;2023-02-28T07:01:07;100160.25;;;8.53;100.00
39793;BME280;26080;42.264;24.536;2023-02-28T07:03:35;100161.81;;;8.60;100.00
39793;BME280;26080;42.264;24.536;2023-02-28T07:06:00;100150.41;;;8.63;100.00
39793;BME280;26080;42.264;24.536;2023-02-28T07:08:27;100159.88;;;8.69;100.00
39793;BME280;26080;42.264;24.536;2023-02-28T07:10:56;100156.53;;;8.62;100.00
39793;BME280;26080;42.264;24.536;2023-02-28T07:13:23;100167.19;;;8.54;100.00
39793;BME280;26080;42.264;24.536;2023-02-28T07:16:09;100165.69;;;8.44;100.00
39793;BME280;26080;42.264;24.536;2023-02-28T07:18:36;100155.38;;;8.40;100.00
39793;BME280;26080;42.264;24.536;2023-02-28T07:21:03;100146.78;;;8.36;100.00
39793;BME280;26080;42.264;24.536;2023-02-28T07:23:29;100165.13;;;8.67;100.00
39793;BME280;26080;42.264;24.536;2023-02-28T07:25:55;100164.78;;;8.81;100.00
39793;BME280;26080;42.264;24.536;2023-02-28T07:28:20;100173.16;;;8.94;100.00
39793;BME280;26080;42.264;24.536;2023-02-28T07:30:45;100181.09;;;8.89;100.00
39793;BME280;26080;42.264;24.536;2023-02-28T07:33:11;100183.63;;;8.92;100.00
39793;BME280;26080;42.264;24.536;2023-02-28T07:35:36;100178.59;;;8.84;100.00
39793;BME280;26080;42.264;24.536;2023-02-28T07:38:02;100174.81;;;8.62;100.00
39793;BME280;26080;42.264;24.536;2023-02-28T07:40:28;100174.81;;;8.64;100.00
39793;BME280;26080;42.264;24.536;2023-02-28T07:42:53;100189.19;;;8.80;100.00
39793;BME280;26080;42.264;24.536;2023-02-28T07:45:20;100166.63;;;8.76;100.00
39793;BME280;26080;42.264;24.536;2023-02-28T07:47:45;100178.19;;;9.00;100.00
39793;BME280;26080;42.264;24.536;2023-02-28T07:50:13;100174.22;;;9.17;100.00
39793;BME280;26080;42.264;24.536;2023-02-28T07:52:39;100168.94;;;9.20;100.00
39793;BME280;26080;42.264;24.536;2023-02-28T07:55:07;100168.28;;;9.12;100.00
39793;BME280;26080;42.264;24.536;2023-02-28T07:57:33;100182.63;;;9.29;100.00
39793;BME280;26080;42.264;24.536;2023-02-28T07:59:58;100177.75;;;9.47;100.00
39793;BME280;26080;42.264;24.536;2023-02-28T08:02:24;100165.56;;;9.46;100.00
39793;BME280;26080;42.264;24.536;2023-02-28T08:04:49;100175.66;;;9.59;100.00
39793;BME280;26080;42.264;24.536;2023-02-28T08:07:16;100163.16;;;9.39;100.00
39793;BME280;26080;42.264;24.536;2023-02-28T08:09:42;100158.97;;;9.33;100.00
39793;BME280;26080;42.264;24.536;2023-02-28T08:12:09;100170.41;;;9.59;100.00
39793;BME280;26080;42.264;24.536;2023-02-28T08:14:35;100180.03;;;9.58;100.00
39793;BME280;26080;42.264;24.536;2023-02-28T08:17:01;100152.03;;;9.32;100.00
39793;BME280;26080;42.264;24.536;2023-02-28T08:19:27;100184.59;;;9.20;100.00
39793;BME280;26080;42.264;24.536;2023-02-28T08:21:53;100184.75;;;9.14;100.00
39793;BME280;26080;42.264;24.536;2023-02-28T08:24:18;100194.31;;;9.15;100.00
39793;BME280;26080;42.264;24.536;2023-02-28T08:26:44;100189.34;;;9.06;100.00
39793;BME280;26080;42.264;24.536;2023-02-28T08:29:09;100192.00;;;9.05;100.00
39793;BME280;26080;42.264;24.536;2023-02-28T08:31:35;100184.28;;;9.00;100.00
39793;BME280;26080;42.264;24.536;2023-02-28T08:34:13;100191.03;;;9.09;100.00
39793;BME280;26080;42.264;24.536;2023-02-28T08:36:39;100144.31;;;8.97;100.00
39793;BME280;26080;42.264;24.536;2023-02-28T08:39:05;100192.88;;;9.36;100.00
39793;BME280;26080;42.264;24.536;2023-02-28T08:41:32;100190.16;;;9.39;100.00
39793;BME280;26080;42.264;24.536;2023-02-28T08:43:57;100180.28;;;9.19;100.00
39793;BME280;26080;42.264;24.536;2023-02-28T08:46:23;100182.22;;;9.11;100.00
39793;BME280;26080;42.264;24.536;2023-02-28T08:48:54;100193.69;;;9.07;100.00
39793;BME280;26080;42.264;24.536;2023-02-28T08:51:20;100193.34;;;9.19;100.00
39793;BME280;26080;42.264;24.536;2023-02-28T08:53:57;100199.28;;;9.25;100.00
39793;BME280;26080;42.264;24.536;2023-02-28T08:56:23;100189.91;;;9.17;100.00
39793;BME280;26080;42.264;24.536;2023-02-28T08:58:49;100181.41;;;9.09;100.00
39793;BME280;26080;42.264;24.536;2023-02-28T09:01:20;100176.19;;;9.09;100.00
39793;BME280;26080;42.264;24.536;2023-02-28T09:03:47;100204.72;;;9.18;100.00
39793;BME280;26080;42.264;24.536;2023-02-28T09:06:13;100196.81;;;9.20;100.00
39793;BME280;26080;42.264;24.536;2023-02-28T09:08:39;100200.38;;;9.16;100.00
39793;BME280;26080;42.264;24.536;2023-02-28T09:11:06;100202.09;;;9.18;100.00
39793;BME280;26080;42.264;24.536;2023-02-28T09:13:33;100172.81;;;9.06;100.00
39793;BME280;26080;42.264;24.536;2023-02-28T09:16:00;100205.34;;;9.27;100.00
39793;BME280;26080;42.264;24.536;2023-02-28T09:18:27;100193.03;;;9.30;100.00
39793;BME280;26080;42.264;24.536;2023-02-28T09:20:52;100173.16;;;9.25;100.00
39793;BME280;26080;42.264;24.536;2023-02-28T09:23:18;100192.78;;;9.39;100.00
39793;BME280;26080;42.264;24.536;2023-02-28T09:25:52;100192.91;;;9.35;100.00
39793;BME280;26080;42.264;24.536;2023-02-28T09:28:19;100188.50;;;9.37;100.00
39793;BME280;26080;42.264;24.536;2023-02-28T09:30:49;100180.41;;;9.46;100.00
39793;BME280;26080;42.264;24.536;2023-02-28T09:33:16;100157.97;;;9.37;100.00
39793;BME280;26080;42.264;24.536;2023-02-28T09:35:42;100172.50;;;9.47;100.00
39793;BME280;26080;42.264;24.536;2023-02-28T09:38:09;100171.31;;;9.58;100.00
39793;BME280;26080;42.264;24.536;2023-02-28T09:40:59;100150.44;;;9.56;100.00
39793;BME280;26080;42.264;24.536;2023-02-28T09:43:34;100171.22;;;9.62;100.00
39793;BME280;26080;42.264;24.536;2023-02-28T09:46:24;100174.16;;;9.79;100.00
39793;BME280;26080;42.264;24.536;2023-02-28T09:48:51;100140.00;;;9.56;100.00
39793;BME280;26080;42.264;24.536;2023-02-28T09:54:19;100175.41;;;9.96;100.00
39793;BME280;26080;42.264;24.536;2023-02-28T10:08:30;100144.38;;;10.12;100.00
39793;BME280;26080;42.264;24.536;2023-02-28T10:10:59;100140.53;;;10.23;100.00
39793;BME280;26080;42.264;24.536;2023-02-28T10:18:57;100145.44;;;10.06;100.00
39793;BME280;26080;42.264;24.536;2023-02-28T10:21:38;100151.16;;;9.91;100.00
39793;BME280;26080;42.264;24.536;2023-02-28T10:24:17;100122.31;;;9.64;100.00
39793;BME280;26080;42.264;24.536;2023-02-28T10:26:45;100146.28;;;9.78;100.00
39793;BME280;26080;42.264;24.536;2023-02-28T10:29:12;100152.47;;;9.76;100.00
39793;BME280;26080;42.264;24.536;2023-02-28T10:31:38;100149.88;;;9.76;100.00
39793;BME280;26080;42.264;24.536;2023-02-28T10:34:04;100153.50;;;9.70;100.00
39793;BME280;26080;42.264;24.536;2023-02-28T10:36:31;100121.88;;;9.50;100.00
39793;BME280;26080;42.264;24.536;2023-02-28T10:38:57;100112.19;;;9.54;100.00
39793;BME280;26080;42.264;24.536;2023-02-28T10:41:31;100136.16;;;9.68;100.00
39793;BME280;26080;42.264;24.536;2023-02-28T10:46:41;100135.19;;;9.70;100.00
39793;BME280;26080;42.264;24.536;2023-02-28T10:49:22;100132.41;;;9.76;100.00
39793;BME280;26080;42.264;24.536;2023-02-28T10:52:00;100127.00;;;9.53;100.00
39793;BME280;26080;42.264;24.536;2023-02-28T10:54:35;100106.41;;;9.42;100.00
39793;BME280;26080;42.264;24.536;2023-02-28T10:57:20;100126.31;;;9.48;100.00
39793;BME280;26080;42.264;24.536;2023-02-28T10:59:51;100097.59;;;9.46;100.00
39793;BME280;26080;42.264;24.536;2023-02-28T11:04:57;100084.53;;;9.45;100.00
39793;BME280;26080;42.264;24.536;2023-02-28T11:07:23;100121.47;;;9.64;100.00
39793;BME280;26080;42.264;24.536;2023-02-28T11:09:55;100121.50;;;9.62;100.00
39793;BME280;26080;42.264;24.536;2023-02-28T11:12:36;100100.91;;;9.52;100.00
39793;BME280;26080;42.264;24.536;2023-02-28T11:15:18;100105.34;;;9.49;100.00
39793;BME280;26080;42.264;24.536;2023-02-28T11:20:26;100112.44;;;9.46;100.00
39793;BME280;26080;42.264;24.536;2023-02-28T11:22:52;100099.53;;;9.40;100.00
39793;BME280;26080;42.264;24.536;2023-02-28T11:25:32;100104.09;;;9.33;100.00
39793;BME280;26080;42.264;24.536;2023-02-28T11:28:01;100098.66;;;9.39;100.00
39793;BME280;26080;42.264;24.536;2023-02-28T11:30:40;100091.88;;;9.34;100.00
39793;BME280;26080;42.264;24.536;2023-02-28T11:33:26;100094.56;;;9.31;100.00
39793;BME280;26080;42.264;24.536;2023-02-28T11:35:53;100092.72;;;9.34;100.00
39793;BME280;26080;42.264;24.536;2023-02-28T11:38:20;100100.63;;;9.33;100.00
39793;BME280;26080;42.264;24.536;2023-02-28T11:51:34;100077.97;;;9.32;100.00
39793;BME280;26080;42.264;24.536;2023-02-28T11:54:16;100076.94;;;9.37;100.00
39793;BME280;26080;42.264;24.536;2023-02-28T11:57:28;100079.69;;;9.33;100.00
39793;BME280;26080;42.264;24.536;2023-02-28T12:00:19;100069.25;;;9.31;100.00
39793;BME280;26080;42.264;24.536;2023-02-28T12:27:28;100049.75;;;8.53;100.00
39793;BME280;26080;42.264;24.536;2023-02-28T12:30:03;100027.16;;;8.18;100.00
39793;BME280;26080;42.264;24.536;2023-02-28T12:32:42;100067.91;;;8.57;100.00
39793;BME280;26080;42.264;24.536;2023-02-28T12:37:44;100064.28;;;8.61;100.00
39793;BME280;26080;42.264;24.536;2023-02-28T12:40:21;100066.19;;;8.56;100.00
39793;BME280;26080;42.264;24.536;2023-02-28T12:42:52;100058.31;;;8.58;100.00
39793;BME280;26080;42.264;24.536;2023-02-28T12:45:30;100055.88;;;8.52;100.00
39793;BME280;26080;42.264;24.536;2023-02-28T12:48:06;100039.50;;;8.45;100.00
39793;BME280;26080;42.264;24.536;2023-02-28T12:50:33;100052.22;;;8.57;100.00
39793;BME280;26080;42.264;24.536;2023-02-28T12:59:27;100055.50;;;8.66;100.00
39793;BME280;26080;42.264;24.536;2023-02-28T13:02:02;100059.25;;;8.55;100.00
39793;BME280;26080;42.264;24.536;2023-02-28T13:10:02;100042.22;;;8.42;100.00
39793;BME280;26080;42.264;24.536;2023-02-28T13:12:29;100043.25;;;8.33;100.00
39793;BME280;26080;42.264;24.536;2023-02-28T13:15:18;100049.22;;;8.40;100.00
39793;BME280;26080;42.264;24.536;2023-02-28T13:17:55;100047.34;;;8.45;100.00
39793;BME280;26080;42.264;24.536;2023-02-28T13:20:28;100040.50;;;8.41;100.00
39793;BME280;26080;42.264;24.536;2023-02-28T13:22:55;100041.59;;;8.31;100.00
39793;BME280;26080;42.264;24.536;2023-02-28T13:27:52;100037.19;;;8.33;100.00
39793;BME280;26080;42.264;24.536;2023-02-28T13:38:49;100023.91;;;8.10;100.00
39793;BME280;26080;42.264;24.536;2023-02-28T13:41:43;100041.28;;;8.11;100.00
39793;BME280;26080;42.264;24.536;2023-02-28T13:51:53;100045.53;;;8.13;100.00
39793;BME280;26080;42.264;24.536;2023-02-28T14:07:20;100067.28;;;8.14;100.00
39793;BME280;26080;42.264;24.536;2023-02-28T14:09:57;100034.47;;;8.03;100.00
39793;BME280;26080;42.264;24.536;2023-02-28T14:17:56;100033.28;;;8.17;100.00
39793;BME280;26080;42.264;24.536;2023-02-28T14:20:26;100056.41;;;8.30;100.00
39793;BME280;26080;42.264;24.536;2023-02-28T14:28:58;100061.47;;;8.38;100.00
39793;BME280;26080;42.264;24.536;2023-02-28T14:31:35;100037.16;;;8.36;100.00
39793;BME280;26080;42.264;24.536;2023-02-28T14:37:00;100050.94;;;8.41;100.00
39793;BME280;26080;42.264;24.536;2023-02-28T14:39:27;100048.19;;;8.46;100.00
39793;BME280;26080;42.264;24.536;2023-02-28T14:41:56;100048.28;;;8.43;100.00
39793;BME280;26080;42.264;24.536;2023-02-28T14:44:27;100046.66;;;8.39;100.00
39793;BME280;26080;42.264;24.536;2023-02-28T14:47:00;100044.16;;;8.34;100.00
39793;BME280;26080;42.264;24.536;2023-02-28T14:52:07;100052.84;;;8.33;100.00
39793;BME280;26080;42.264;24.536;2023-02-28T14:54:37;100043.25;;;8.33;100.00
39793;BME280;26080;42.264;24.536;2023-02-28T14:57:03;100056.31;;;8.35;100.00
39793;BME280;26080;42.264;24.536;2023-02-28T14:59:32;100057.25;;;8.31;100.00
39793;BME280;26080;42.264;24.536;2023-02-28T15:02:24;100054.84;;;8.23;100.00
39793;BME280;26080;42.264;24.536;2023-02-28T15:04:59;100059.41;;;8.15;100.00
39793;BME280;26080;42.264;24.536;2023-02-28T15:07:25;100065.41;;;8.19;100.00
39793;BME280;26080;42.264;24.536;2023-02-28T15:16:09;100073.81;;;8.30;100.00
39793;BME280;26080;42.264;24.536;2023-02-28T15:21:10;100072.31;;;8.20;100.00
39793;BME280;26080;42.264;24.536;2023-02-28T15:23:37;100037.25;;;7.97;100.00
39793;BME280;26080;42.264;24.536;2023-02-28T15:26:04;100072.31;;;8.20;100.00
39793;BME280;26080;42.264;24.536;2023-02-28T15:28:30;100078.78;;;8.05;100.00
39793;BME280;26080;42.264;24.536;2023-02-28T15:31:02;100084.13;;;8.00;100.00
39793;BME280;26080;42.264;24.536;2023-02-28T15:33:32;100087.78;;;7.92;100.00
39793;BME280;26080;42.264;24.536;2023-02-28T15:36:15;100087.19;;;7.82;100.00